createdAt,value
2018-05-02T00:02:19.634Z,101054.84
2018-05-02T00:05:23.789Z,101062.30
2018-05-02T00:08:27.105Z,101066.48
2018-05-02T00:11:31.419Z,101067.28
2018-05-02T00:14:34.725Z,101073.42
2018-05-02T00:17:38.122Z,101065.92
2018-05-02T00:20:41.535Z,101066.23
2018-05-02T00:23:46.464Z,101069.03
2018-05-02T00:26:49.812Z,101071.02
2018-05-02T00:29:53.157Z,101068.26
2018-05-02T00:32:56.558Z,101077.72
2018-05-02T00:35:59.879Z,101070.76
2018-05-02T00:39:03.968Z,101069.55
2018-05-02T00:42:07.365Z,101068.11
2018-05-02T00:45:10.752Z,101071.13
2018-05-02T00:48:14.172Z,101074.96
2018-05-02T00:51:17.494Z,101074.88
2018-05-02T00:54:20.815Z,101079.03
2018-05-02T00:57:24.162Z,101074.23
2018-05-02T01:00:27.481Z,101073.77
2018-05-02T01:03:32.192Z,101067.66
2018-05-02T01:06:35.590Z,101073.42
2018-05-02T01:09:38.975Z,101077.43
2018-05-02T01:12:42.385Z,101077.22
2018-05-02T01:15:45.697Z,101080.09
2018-05-02T01:18:49.114Z,101085.09
2018-05-02T01:21:52.373Z,101093.52
2018-05-02T01:24:55.740Z,101096.50
2018-05-02T01:27:59.081Z,101097.55
2018-05-02T01:31:02.480Z,101094.34
2018-05-02T01:34:05.808Z,101094.37
2018-05-02T01:37:09.147Z,101100.31
2018-05-02T01:40:12.474Z,101109.52
2018-05-02T01:43:15.798Z,101107.35
2018-05-02T01:46:19.135Z,101099.27
2018-05-02T01:49:25.352Z,101088.80
2018-05-02T01:52:28.742Z,101076.29
2018-05-02T01:55:32.050Z,101069.14
2018-05-02T01:58:35.375Z,101067.25
2018-05-02T02:01:39.460Z,101061.02
2018-05-02T02:04:43.582Z,101059.53
2018-05-02T02:07:47.788Z,101063.27
2018-05-02T02:10:51.097Z,101066.91
2018-05-02T02:13:54.426Z,101076.60
2018-05-02T02:16:58.596Z,101075.50
2018-05-02T02:20:01.918Z,101070.41
2018-05-02T02:23:05.235Z,101077.52
2018-05-02T02:26:09.327Z,101070.42
2018-05-02T02:29:12.664Z,101072.30
2018-05-02T02:32:15.988Z,101079.01
2018-05-02T02:35:19.295Z,101080.23
2018-05-02T02:38:22.629Z,101083.19
2018-05-02T02:41:26.718Z,101070.81
2018-05-02T02:44:30.049Z,101070.96
2018-05-02T02:47:34.150Z,101087.20
2018-05-02T02:50:37.461Z,101084.26
2018-05-02T02:53:41.553Z,101080.31
2018-05-02T02:56:44.957Z,101072.80
2018-05-02T02:59:49.187Z,101077.59
2018-05-02T03:02:52.564Z,101076.61
2018-05-02T03:05:55.864Z,101077.83
2018-05-02T03:08:59.256Z,101072.25
2018-05-02T03:12:02.665Z,101066.11
2018-05-02T03:15:05.986Z,101063.86
2018-05-02T03:18:09.307Z,101067.72
2018-05-02T03:21:13.433Z,101059.66
2018-05-02T03:24:16.770Z,101056.65
2018-05-02T03:27:20.189Z,101062.46
2018-05-02T03:30:23.506Z,101053.75
2018-05-02T03:33:26.872Z,101057.92
2018-05-02T03:36:30.188Z,101062.95
2018-05-02T03:39:34.280Z,101067.22
2018-05-02T03:42:37.697Z,101065.91
2018-05-02T03:45:41.000Z,101065.38
2018-05-02T03:48:45.096Z,101074.03
2018-05-02T03:51:48.449Z,101074.59
2018-05-02T03:54:52.542Z,101076.30
2018-05-02T03:57:55.905Z,101074.63
2018-05-02T04:01:17.038Z,101078.59
2018-05-02T04:04:38.267Z,101079.01
2018-05-02T04:07:42.993Z,101079.25
2018-05-02T04:10:47.816Z,101088.95
2018-05-02T04:13:51.162Z,101088.09
2018-05-02T04:16:55.233Z,101093.74
2018-05-02T04:19:58.570Z,101097.87
2018-05-02T04:23:02.645Z,101098.64
2018-05-02T04:26:06.097Z,101102.97
2018-05-02T04:29:09.447Z,101108.53
2018-05-02T04:32:12.850Z,101113.19
2018-05-02T04:35:16.237Z,101115.67
2018-05-02T04:38:19.564Z,101119.75
2018-05-02T04:41:22.937Z,101122.97
2018-05-02T04:44:26.357Z,101124.40
2018-05-02T04:47:29.659Z,101135.12
2018-05-02T04:50:33.029Z,101134.17
2018-05-02T04:53:36.495Z,101138.42
2018-05-02T04:56:39.876Z,101137.31
2018-05-02T04:59:43.977Z,101134.83
2018-05-02T05:02:47.368Z,101138.09
2018-05-02T05:05:50.669Z,101144.23
2018-05-02T05:08:54.050Z,101140.14
2018-05-02T05:11:57.346Z,101145.80
2018-05-02T05:15:00.738Z,101150.09
2018-05-02T05:18:04.132Z,101146.86
2018-05-02T05:21:07.445Z,101149.25
2018-05-02T05:24:10.833Z,101145.77
2018-05-02T05:27:14.128Z,101148.53
2018-05-02T05:30:17.467Z,101153.62
2018-05-02T05:33:20.789Z,101156.53
2018-05-02T05:36:24.143Z,101162.91
2018-05-02T05:39:27.470Z,101164.89
2018-05-02T05:42:31.536Z,101159.35
2018-05-02T05:45:34.937Z,101154.25
2018-05-02T05:48:38.270Z,101157.60
2018-05-02T05:51:42.350Z,101166.71
2018-05-02T05:54:45.682Z,101172.69
2018-05-02T05:57:49.063Z,101171.06
2018-05-02T06:00:52.472Z,101172.32
2018-05-02T06:03:55.749Z,101176.78
2018-05-02T06:06:59.057Z,101177.33
2018-05-02T06:10:02.456Z,101178.53
2018-05-02T06:13:05.768Z,101173.34
2018-05-02T06:16:09.077Z,101173.08
2018-05-02T06:19:13.155Z,101177.41
2018-05-02T06:22:16.457Z,101178.72
2018-05-02T06:25:20.589Z,101177.36
2018-05-02T06:28:23.918Z,101185.21
2018-05-02T06:31:28.365Z,101172.40
2018-05-02T06:34:31.672Z,101179.98
2018-05-02T06:37:35.017Z,101176.22
2018-05-02T06:40:38.330Z,101182.65
2018-05-02T06:43:42.432Z,101181.25
2018-05-02T06:46:45.724Z,101184.28
2018-05-02T06:49:49.057Z,101179.37
2018-05-02T06:52:53.119Z,101180.62
2018-05-02T06:55:56.424Z,101172.11
2018-05-02T06:58:59.877Z,101174.05
2018-05-02T07:02:03.203Z,101169.48
2018-05-02T07:05:06.677Z,101173.91
2018-05-02T07:08:09.998Z,101169.78
2018-05-02T07:11:13.374Z,101174.05
2018-05-02T07:14:16.710Z,101174.62
2018-05-02T07:17:20.123Z,101176.20
2018-05-02T07:20:23.506Z,101181.91
2018-05-02T07:23:26.819Z,101179.48
2018-05-02T07:26:30.229Z,101176.86
2018-05-02T07:29:33.623Z,101171.77
2018-05-02T07:32:37.025Z,101166.13
2018-05-02T07:35:40.301Z,101166.17
2018-05-02T07:38:43.703Z,101171.72
2018-05-02T07:41:47.093Z,101172.13
2018-05-02T07:44:50.437Z,101166.33
2018-05-02T07:47:53.806Z,101177.10
2018-05-02T07:50:57.213Z,101178.92
2018-05-02T07:54:00.560Z,101171.99
2018-05-02T07:57:03.928Z,101179.65
2018-05-02T08:00:07.318Z,101176.95
2018-05-02T08:03:11.428Z,101175.17
2018-05-02T08:06:14.829Z,101174.88
2018-05-02T08:09:18.220Z,101178.58
2018-05-02T08:12:21.526Z,101176.19
2018-05-02T08:15:24.917Z,101173.92
2018-05-02T08:18:28.269Z,101178.14
2018-05-02T08:21:31.618Z,101183.48
2018-05-02T08:24:34.958Z,101174.08
2018-05-02T08:27:39.126Z,101173.41
2018-05-02T08:30:42.535Z,101181.12
2018-05-02T08:33:45.942Z,101181.86
2018-05-02T08:36:49.328Z,101173.39
2018-05-02T08:39:52.717Z,101182.30
2018-05-02T08:42:56.035Z,101179.83
2018-05-02T08:45:59.375Z,101171.89
2018-05-02T08:49:02.729Z,101172.36
2018-05-02T08:52:06.116Z,101165.66
2018-05-02T08:55:09.522Z,101165.19
2018-05-02T08:58:12.926Z,101164.50
2018-05-02T09:01:16.261Z,101158.02
2018-05-02T09:04:20.349Z,101154.41
2018-05-02T09:07:23.659Z,101159.79
2018-05-02T09:10:26.991Z,101169.03
2018-05-02T09:13:30.341Z,101161.04
2018-05-02T09:16:33.746Z,101165.32
2018-05-02T09:19:37.084Z,101158.45
2018-05-02T09:22:40.439Z,101166.48
2018-05-02T09:25:43.898Z,101153.55
2018-05-02T09:28:47.181Z,101148.02
2018-05-02T09:31:50.503Z,101146.50
2018-05-02T09:34:53.837Z,101158.22
2018-05-02T09:37:57.159Z,101158.66
2018-05-02T09:41:01.243Z,101152.64
2018-05-02T09:44:04.597Z,101155.95
2018-05-02T09:47:07.909Z,101145.03
2018-05-02T09:50:11.293Z,101152.17
2018-05-02T09:53:14.689Z,101149.37
2018-05-02T09:56:18.035Z,101148.20
2018-05-02T09:59:21.490Z,101141.17
2018-05-02T10:02:24.809Z,101137.80
2018-05-02T10:05:28.154Z,101140.75
2018-05-02T10:08:31.463Z,101145.50
2018-05-02T10:11:35.636Z,101142.55
2018-05-02T10:14:38.955Z,101137.69
2018-05-02T10:17:42.297Z,101136.84
2018-05-02T10:20:45.662Z,101141.09
2018-05-02T10:23:48.979Z,101127.20
2018-05-02T10:26:53.182Z,101134.32
2018-05-02T10:29:56.635Z,101132.60
2018-05-02T10:33:00.014Z,101140.04
2018-05-02T10:36:03.344Z,101136.97
2018-05-02T10:39:06.769Z,101130.96
2018-05-02T10:42:10.174Z,101126.75
2018-05-02T10:45:13.509Z,101123.78
2018-05-02T10:48:16.840Z,101117.33
2018-05-02T10:51:20.245Z,101116.02
2018-05-02T10:54:23.573Z,101113.33
2018-05-02T10:57:26.976Z,101116.33
2018-05-02T11:00:30.354Z,101111.45
2018-05-02T11:03:33.669Z,101109.36
2018-05-02T11:06:37.001Z,101103.33
2018-05-02T11:09:40.338Z,101103.31
2018-05-02T11:12:43.646Z,101116.77
2018-05-02T11:15:46.983Z,101114.45
2018-05-02T11:18:51.166Z,101112.59
2018-05-02T11:21:54.502Z,101117.78
2018-05-02T11:24:57.878Z,101107.17
2018-05-02T11:28:01.188Z,101108.70
2018-05-02T11:31:05.284Z,101109.62
2018-05-02T11:34:08.624Z,101103.55
2018-05-02T11:37:11.939Z,101101.33
2018-05-02T11:40:15.293Z,101093.89
2018-05-02T11:43:18.679Z,101105.65
2018-05-02T11:46:22.105Z,101095.83
2018-05-02T11:49:25.422Z,101090.86
2018-05-02T11:52:28.733Z,101095.33
2018-05-02T11:55:32.171Z,101088.39
2018-05-02T11:58:35.485Z,101079.61
2018-05-02T12:01:38.867Z,101089.38
2018-05-02T12:04:42.197Z,101086.72
2018-05-02T12:07:46.385Z,101084.80
2018-05-02T12:10:49.800Z,101080.52
2018-05-02T12:13:53.894Z,101077.42
2018-05-02T12:16:57.222Z,101071.56
2018-05-02T12:20:00.588Z,101080.63
2018-05-02T12:23:03.904Z,101076.39
2018-05-02T12:26:07.329Z,101074.05
2018-05-02T12:29:11.429Z,101070.42
2018-05-02T12:32:14.805Z,101067.11
2018-05-02T12:35:18.284Z,101072.35
2018-05-02T12:38:21.559Z,101064.14
2018-05-02T12:41:24.911Z,101065.91
2018-05-02T12:44:28.305Z,101064.46
2018-05-02T12:47:31.702Z,101055.27
2018-05-02T12:50:35.107Z,101044.23
2018-05-02T12:53:38.428Z,101045.71
2018-05-02T12:56:41.754Z,101048.42
2018-05-02T12:59:45.154Z,101038.52
2018-05-02T13:02:48.472Z,101039.02
2018-05-02T13:05:51.794Z,101030.98
2018-05-02T13:08:55.203Z,101026.65
2018-05-02T13:11:58.651Z,101021.75
2018-05-02T13:15:01.999Z,101027.70
2018-05-02T13:18:05.393Z,101021.79
2018-05-02T13:21:08.722Z,101007.28
2018-05-02T13:24:12.045Z,101004.27
2018-05-02T13:27:15.389Z,101004.96
2018-05-02T13:30:18.737Z,101002.55
2018-05-02T13:33:22.095Z,100994.03
2018-05-02T13:36:25.528Z,100997.70
2018-05-02T13:39:29.062Z,100986.95
2018-05-02T13:42:32.381Z,100995.36
2018-05-02T13:45:35.724Z,100988.77
2018-05-02T13:48:39.797Z,100989.21
2018-05-02T13:51:43.132Z,100978.44
2018-05-02T13:54:46.498Z,100984.50
2018-05-02T13:57:49.914Z,100979.48
2018-05-02T14:00:53.318Z,100982.59
2018-05-02T14:03:56.657Z,100970.61
2018-05-02T14:07:00.009Z,100972.44
2018-05-02T14:10:04.113Z,100967.17
2018-05-02T14:13:07.473Z,100969.61
2018-05-02T14:16:10.796Z,100954.73
2018-05-02T14:19:14.114Z,100949.45
2018-05-02T14:22:17.449Z,100947.95
2018-05-02T14:25:21.549Z,100940.34
2018-05-02T14:28:24.904Z,100938.30
2018-05-02T14:31:28.245Z,100938.22
2018-05-02T14:34:31.636Z,100939.35
2018-05-02T14:37:35.077Z,100937.63
2018-05-02T14:40:38.429Z,100934.20
2018-05-02T14:43:41.836Z,100928.96
2018-05-02T14:46:45.161Z,100923.27
2018-05-02T14:49:49.331Z,100913.28
2018-05-02T14:52:52.662Z,100916.88
2018-05-02T14:55:55.973Z,100923.53
2018-05-02T14:59:00.164Z,100914.13
2018-05-02T15:02:03.521Z,100915.05
2018-05-02T15:05:06.850Z,100917.39
2018-05-02T15:08:10.331Z,100908.94
2018-05-02T15:11:14.475Z,100908.27
2018-05-02T15:14:17.802Z,100908.94
2018-05-02T15:17:21.897Z,100900.59
2018-05-02T15:20:25.233Z,100895.59
2018-05-02T15:23:28.630Z,100897.28
2018-05-02T15:26:31.980Z,100896.46
2018-05-02T15:29:35.300Z,100897.84
2018-05-02T15:32:38.660Z,100898.89
2018-05-02T15:35:42.068Z,100900.34
2018-05-02T15:38:45.476Z,100891.39
2018-05-02T15:41:48.878Z,100903.33
2018-05-02T15:44:52.294Z,100900.51
2018-05-02T15:47:55.805Z,100890.59
2018-05-02T15:50:59.131Z,100882.13
2018-05-02T15:54:02.453Z,100871.45
2018-05-02T15:57:05.865Z,100865.96
2018-05-02T16:00:09.195Z,100859.57
2018-05-02T16:03:12.767Z,100862.26
2018-05-02T16:06:16.104Z,100854.92
2018-05-02T16:09:19.471Z,100848.84
2018-05-02T16:12:22.883Z,100855.27
2018-05-02T16:15:26.292Z,100853.59
2018-05-02T16:18:29.609Z,100854.05
2018-05-02T16:21:33.700Z,100854.96
2018-05-02T16:24:37.787Z,100857.11
2018-05-02T16:27:41.252Z,100844.77
2018-05-02T16:30:44.562Z,100838.53
2018-05-02T16:33:47.878Z,100835.61
2018-05-02T16:36:51.305Z,100837.41
2018-05-02T16:39:55.637Z,100842.25
2018-05-02T16:43:00.477Z,100850.66
2018-05-02T16:46:03.883Z,100842.40
2018-05-02T16:49:07.208Z,100846.61
2018-05-02T16:52:10.540Z,100842.39
2018-05-02T16:55:13.858Z,100843.20
2018-05-02T16:58:17.206Z,100839.32
2018-05-02T17:01:20.622Z,100839.97
2018-05-02T17:04:24.021Z,100845.20
2018-05-02T17:07:27.290Z,100844.30
2018-05-02T17:10:31.466Z,100843.45
2018-05-02T17:13:34.783Z,100843.03
2018-05-02T17:16:38.278Z,100837.31
2018-05-02T17:19:42.402Z,100844.27
2018-05-02T17:22:45.727Z,100846.86
2018-05-02T17:25:49.841Z,100849.88
2018-05-02T17:28:54.015Z,100852.54
2018-05-02T17:31:57.349Z,100855.59
2018-05-02T17:35:01.440Z,100862.45
2018-05-02T17:38:04.826Z,100861.92
2018-05-02T17:41:08.148Z,100854.80
2018-05-02T17:44:11.470Z,100849.03
2018-05-02T17:47:15.645Z,100850.65
2018-05-02T17:50:18.975Z,100850.91
2018-05-02T17:53:23.083Z,100853.88
2018-05-02T17:56:26.411Z,100858.13
2018-05-02T17:59:29.749Z,100856.16
2018-05-02T18:02:33.207Z,100859.94
2018-05-02T18:05:37.401Z,100859.74
2018-05-02T18:08:40.791Z,100861.80
2018-05-02T18:11:44.117Z,100856.12
2018-05-02T18:14:48.229Z,100855.56
2018-05-02T18:17:52.321Z,100845.11
2018-05-02T18:20:55.654Z,100851.44
2018-05-02T18:23:59.822Z,100855.20
2018-05-02T18:27:03.231Z,100853.30
2018-05-02T18:30:06.626Z,100857.56
2018-05-02T18:33:10.086Z,100862.20
2018-05-02T18:36:13.434Z,100866.86
2018-05-02T18:39:16.740Z,100868.56
2018-05-02T18:42:20.074Z,100861.94
2018-05-02T18:45:23.423Z,100862.41
2018-05-02T18:48:26.828Z,100865.17
2018-05-02T18:51:30.235Z,100859.84
2018-05-02T18:54:33.556Z,100857.94
2018-05-02T18:57:37.650Z,100855.77
2018-05-02T19:00:41.045Z,100859.07
2018-05-02T19:03:45.133Z,100869.39
2018-05-02T19:06:48.470Z,100869.34
2018-05-02T19:09:51.852Z,100869.20
2018-05-02T19:12:55.254Z,100867.77
2018-05-02T19:15:58.678Z,100859.36
2018-05-02T19:19:08.415Z,100852.23
2018-05-02T19:22:11.819Z,100858.12
2018-05-02T19:28:51.987Z,100862.58
2018-05-02T19:35:36.143Z,100874.55
2018-05-02T19:38:39.553Z,100881.48
2018-05-02T19:41:48.511Z,100869.78
2018-05-02T19:44:51.829Z,100874.97
2018-05-02T19:47:55.935Z,100871.80
2018-05-02T19:54:38.758Z,100872.20
2018-05-02T19:57:42.148Z,100873.00
2018-05-02T20:00:51.126Z,100868.69
2018-05-02T20:03:54.464Z,100870.35
2018-05-02T20:06:57.833Z,100865.98
2018-05-02T20:10:06.619Z,100862.95
2018-05-02T20:13:15.604Z,100852.94
2018-05-02T20:16:18.930Z,100854.67
2018-05-02T20:19:22.334Z,100856.84
2018-05-02T20:22:25.675Z,100856.09
2018-05-02T20:25:29.851Z,100854.22
2018-05-02T20:28:33.217Z,100854.86
2018-05-02T20:31:36.563Z,100858.48
2018-05-02T20:34:39.980Z,100856.91
2018-05-02T20:37:44.076Z,100849.83
2018-05-02T20:40:47.394Z,100844.34
2018-05-02T20:43:51.573Z,100851.76
2018-05-02T20:46:54.976Z,100849.16
2018-05-02T20:49:58.365Z,100854.07
2018-05-02T20:53:01.769Z,100844.16
2018-05-02T20:56:05.174Z,100856.67
2018-05-02T20:59:08.505Z,100855.46
2018-05-02T21:02:12.620Z,100860.31
2018-05-02T21:05:15.994Z,100857.28
2018-05-02T21:08:19.309Z,100857.72
2018-05-02T21:11:22.618Z,100855.16
2018-05-02T21:14:26.881Z,100852.17
2018-05-02T21:17:30.163Z,100854.00
2018-05-02T21:20:33.471Z,100858.38
2018-05-02T21:23:37.065Z,100846.28
2018-05-02T21:26:40.511Z,100850.31
2018-05-02T21:29:43.909Z,100840.78
2018-05-02T21:32:47.236Z,100835.54
2018-05-02T21:35:51.553Z,100842.47
2018-05-02T21:38:54.955Z,100829.98
2018-05-02T21:41:58.329Z,100829.91
2018-05-02T21:45:01.756Z,100829.47
2018-05-02T21:48:05.126Z,100824.30
2018-05-02T21:51:08.495Z,100820.84
2018-05-02T21:54:12.097Z,100824.74
2018-05-02T21:57:16.983Z,100824.73
2018-05-02T22:00:20.317Z,100819.15
2018-05-02T22:03:23.783Z,100826.08
2018-05-02T22:06:27.145Z,100829.94
2018-05-02T22:09:30.714Z,100827.34
2018-05-02T22:12:34.057Z,100827.26
2018-05-02T22:15:37.636Z,100834.97
2018-05-02T22:18:41.258Z,100822.75
2018-05-02T22:21:44.577Z,100820.97
2018-05-02T22:24:47.932Z,100819.38
2018-05-02T22:27:51.566Z,100829.64
2018-05-02T22:30:55.070Z,100821.75
2018-05-02T22:33:58.446Z,100823.87
2018-05-02T22:37:01.809Z,100828.63
2018-05-02T22:40:05.189Z,100825.17
2018-05-02T22:43:08.529Z,100818.19
2018-05-02T22:46:11.945Z,100820.45
2018-05-02T22:49:15.385Z,100817.72
2018-05-02T22:52:18.724Z,100805.11
2018-05-02T22:55:22.874Z,100806.75
2018-05-02T22:58:26.226Z,100801.98
2018-05-02T23:01:30.323Z,100806.27
2018-05-02T23:04:33.672Z,100806.23
2018-05-02T23:07:37.004Z,100802.23
2018-05-02T23:10:40.409Z,100793.57
2018-05-02T23:13:43.796Z,100803.10
2018-05-02T23:16:47.107Z,100800.94
2018-05-02T23:19:50.424Z,100788.42
2018-05-02T23:22:53.749Z,100789.72
2018-05-02T23:25:57.941Z,100776.64
2018-05-02T23:29:01.278Z,100778.28
2018-05-02T23:32:04.614Z,100777.84
2018-05-02T23:35:07.945Z,100776.54
2018-05-02T23:38:12.059Z,100776.59
2018-05-02T23:41:16.207Z,100775.77
2018-05-02T23:44:19.567Z,100771.39
2018-05-02T23:47:22.950Z,100757.53
2018-05-02T23:50:26.261Z,100752.73
2018-05-02T23:53:29.595Z,100745.80
2018-05-02T23:56:32.991Z,100743.16
2018-05-02T23:59:37.080Z,100741.42
